createdAt,value
2019-02-05T00:00:37.131Z,974.92
2019-02-05T00:01:37.114Z,974.93
2019-02-05T00:02:37.129Z,974.92
2019-02-05T00:03:37.104Z,974.89
2019-02-05T00:04:37.076Z,974.89
2019-02-05T00:05:37.069Z,974.91
2019-02-05T00:06:37.059Z,974.93
2019-02-05T00:07:37.065Z,974.92
2019-02-05T00:08:37.061Z,974.96
2019-02-05T00:09:37.047Z,974.98
2019-02-05T00:10:37.024Z,974.93
2019-02-05T00:11:37.027Z,974.95
2019-02-05T00:12:37.003Z,974.95
2019-02-05T00:13:36.999Z,974.96
2019-02-05T00:14:37.019Z,974.90
2019-02-05T00:15:44.061Z,974.87
2019-02-05T00:16:44.060Z,974.85
2019-02-05T00:17:36.935Z,974.85
2019-02-05T00:18:36.966Z,974.83
2019-02-05T00:19:36.913Z,974.88
2019-02-05T00:20:36.938Z,974.82
2019-02-05T00:21:36.900Z,974.80
2019-02-05T00:22:36.893Z,974.83
2019-02-05T00:23:36.866Z,974.81
2019-02-05T00:24:36.876Z,974.74
2019-02-05T00:25:36.858Z,974.80
2019-02-05T00:26:36.850Z,974.82
2019-02-05T00:27:36.845Z,974.77
2019-02-05T00:28:36.816Z,974.80
2019-02-05T00:29:44.010Z,974.80
2019-02-05T00:30:43.825Z,974.75
2019-02-05T00:31:43.883Z,974.74
2019-02-05T00:32:43.874Z,974.74
2019-02-05T00:33:36.765Z,974.74
2019-02-05T00:34:44.141Z,974.81
2019-02-05T00:35:36.740Z,974.83
2019-02-05T00:36:36.733Z,974.78
2019-02-05T00:37:36.712Z,974.82
2019-02-05T00:38:36.748Z,974.82
2019-02-05T00:39:36.697Z,974.81
2019-02-05T00:40:36.694Z,974.74
2019-02-05T00:41:36.669Z,974.76
2019-02-05T00:42:36.675Z,974.83
2019-02-05T00:43:44.341Z,974.78
2019-02-05T00:44:43.712Z,974.80
2019-02-05T00:45:44.180Z,974.79
2019-02-05T00:46:36.611Z,974.80
2019-02-05T00:47:43.678Z,974.75
2019-02-05T00:48:43.661Z,974.81
2019-02-05T00:49:43.689Z,974.82
2019-02-05T00:50:36.608Z,974.79
2019-02-05T00:51:43.704Z,974.73
2019-02-05T00:52:43.609Z,974.76
2019-02-05T00:53:43.641Z,974.89
2019-02-05T00:54:36.530Z,974.79
2019-02-05T00:55:36.585Z,974.77
2019-02-05T00:56:36.503Z,974.79
2019-02-05T00:57:36.496Z,974.80
2019-02-05T00:58:36.488Z,974.76
2019-02-05T00:59:36.471Z,974.72
2019-02-05T01:00:36.468Z,974.72
2019-02-05T01:01:36.486Z,974.68
2019-02-05T01:02:36.439Z,974.70
2019-02-05T01:03:36.445Z,974.67
2019-02-05T01:04:36.427Z,974.73
2019-02-05T01:05:36.420Z,974.71
2019-02-05T01:06:43.873Z,974.68
2019-02-05T01:07:36.416Z,974.74
2019-02-05T01:08:36.371Z,974.63
2019-02-05T01:09:36.392Z,974.65
2019-02-05T01:10:36.354Z,974.62
2019-02-05T01:11:36.359Z,974.67
2019-02-05T01:12:36.347Z,974.65
2019-02-05T01:13:36.346Z,974.67
2019-02-05T01:14:43.404Z,974.65
2019-02-05T01:15:43.449Z,974.66
2019-02-05T01:16:43.477Z,974.62
2019-02-05T01:17:36.283Z,974.63
2019-02-05T01:18:36.273Z,974.64
2019-02-05T01:19:36.255Z,974.70
2019-02-05T01:20:36.294Z,974.68
2019-02-05T01:21:36.239Z,974.73
2019-02-05T01:22:36.236Z,974.67
2019-02-05T01:23:36.217Z,974.69
2019-02-05T01:24:36.217Z,974.73
2019-02-05T01:25:36.190Z,974.76
2019-02-05T01:26:36.194Z,974.74
2019-02-05T01:27:36.200Z,974.73
2019-02-05T01:28:36.198Z,974.70
2019-02-05T01:29:36.161Z,974.71
2019-02-05T01:30:36.158Z,974.71
2019-02-05T01:31:36.130Z,974.73
2019-02-05T01:32:36.170Z,974.71
2019-02-05T01:33:36.120Z,974.71
2019-02-05T01:34:36.101Z,974.67
2019-02-05T01:35:36.081Z,974.72
2019-02-05T01:36:36.083Z,974.76
2019-02-05T01:37:38.479Z,974.76
2019-02-05T01:38:36.081Z,974.84
2019-02-05T01:39:36.040Z,974.84
2019-02-05T01:40:36.036Z,974.80
2019-02-05T01:41:36.026Z,974.84
2019-02-05T01:42:36.035Z,974.86
2019-02-05T01:43:36.083Z,974.85
2019-02-05T01:44:35.983Z,974.85
2019-02-05T01:45:35.984Z,974.79
2019-02-05T01:46:35.970Z,974.81
2019-02-05T01:47:35.988Z,974.77
2019-02-05T01:48:35.974Z,974.72
2019-02-05T01:49:35.941Z,974.72
2019-02-05T01:50:35.928Z,974.81
2019-02-05T01:51:35.914Z,974.76
2019-02-05T01:52:43.010Z,974.79
2019-02-05T01:53:42.979Z,974.80
2019-02-05T01:54:35.918Z,974.84
2019-02-05T01:55:35.865Z,974.74
2019-02-05T01:56:40.857Z,974.74
2019-02-05T01:57:36.888Z,974.71
2019-02-05T01:58:35.828Z,974.67
2019-02-05T01:59:35.874Z,974.68
2019-02-05T02:00:35.811Z,974.66
2019-02-05T02:01:35.819Z,974.60
2019-02-05T02:02:35.819Z,974.60
2019-02-05T02:03:35.781Z,974.64
2019-02-05T02:04:36.495Z,974.60
2019-02-05T02:05:35.811Z,974.61
2019-02-05T02:06:35.767Z,974.63
2019-02-05T02:07:35.744Z,974.59
2019-02-05T02:08:35.770Z,974.65
2019-02-05T02:09:35.726Z,974.66
2019-02-05T02:10:35.716Z,974.64
2019-02-05T02:11:35.699Z,974.65
2019-02-05T02:12:35.687Z,974.72
2019-02-05T02:13:35.673Z,974.70
2019-02-05T02:14:35.661Z,974.69
2019-02-05T02:15:35.678Z,974.68
2019-02-05T02:16:35.648Z,974.70
2019-02-05T02:17:35.657Z,974.63
2019-02-05T02:18:35.655Z,974.59
2019-02-05T02:19:35.609Z,974.66
2019-02-05T02:20:35.595Z,974.62
2019-02-05T02:21:35.599Z,974.57
2019-02-05T02:22:35.578Z,974.51
2019-02-05T02:23:42.691Z,974.49
2019-02-05T02:24:42.688Z,974.48
2019-02-05T02:25:35.539Z,974.47
2019-02-05T02:26:51.887Z,974.48
2019-02-05T02:27:42.872Z,974.47
2019-02-05T02:28:35.507Z,974.51
2019-02-05T02:29:35.494Z,974.48
2019-02-05T02:30:35.493Z,974.48
2019-02-05T02:31:35.531Z,974.47
2019-02-05T02:32:35.464Z,974.46
2019-02-05T02:33:35.450Z,974.42
2019-02-05T02:34:35.442Z,974.47
2019-02-05T02:35:35.447Z,974.53
2019-02-05T02:36:35.439Z,974.54
2019-02-05T02:37:35.431Z,974.47
2019-02-05T02:38:35.406Z,974.54
2019-02-05T02:39:35.395Z,974.52
2019-02-05T02:40:42.465Z,974.53
2019-02-05T02:41:42.433Z,974.50
2019-02-05T02:42:42.657Z,974.54
2019-02-05T02:43:42.442Z,974.56
2019-02-05T02:44:35.378Z,974.51
2019-02-05T02:45:35.328Z,974.48
2019-02-05T02:46:35.366Z,974.54
2019-02-05T02:47:35.342Z,974.52
2019-02-05T02:48:35.290Z,974.52
2019-02-05T02:49:35.280Z,974.58
2019-02-05T02:50:42.330Z,974.60
2019-02-05T02:51:42.357Z,974.55
2019-02-05T02:52:42.774Z,974.62
2019-02-05T02:53:35.239Z,974.60
2019-02-05T02:54:35.222Z,974.56
2019-02-05T02:55:35.333Z,974.63
2019-02-05T02:56:35.215Z,974.68
2019-02-05T02:57:35.187Z,974.63
2019-02-05T02:58:35.207Z,974.65
2019-02-05T02:59:35.187Z,974.64
2019-02-05T03:00:35.245Z,974.66
2019-02-05T03:01:35.153Z,974.63
2019-02-05T03:02:35.155Z,974.67
2019-02-05T03:03:35.164Z,974.65
2019-02-05T03:04:35.163Z,974.63
2019-02-05T03:05:35.190Z,974.66
2019-02-05T03:06:35.104Z,974.63
2019-02-05T03:07:35.098Z,974.60
2019-02-05T03:08:35.103Z,974.61
2019-02-05T03:09:35.094Z,974.62
2019-02-05T03:10:35.056Z,974.60
2019-02-05T03:11:35.044Z,974.60
2019-02-05T03:12:35.026Z,974.52
2019-02-05T03:13:35.057Z,974.59
2019-02-05T03:14:35.035Z,974.55
2019-02-05T03:15:35.000Z,974.53
2019-02-05T03:16:35.006Z,974.53
2019-02-05T03:17:34.975Z,974.49
2019-02-05T03:18:34.978Z,974.50
2019-02-05T03:19:34.969Z,974.56
2019-02-05T03:20:34.962Z,974.52
2019-02-05T03:21:34.933Z,974.52
2019-02-05T03:22:34.921Z,974.51
2019-02-05T03:23:34.913Z,974.49
2019-02-05T03:24:41.988Z,974.44
2019-02-05T03:25:42.323Z,974.49
2019-02-05T03:26:34.884Z,974.45
2019-02-05T03:27:34.864Z,974.48
2019-02-05T03:28:34.853Z,974.48
2019-02-05T03:29:34.850Z,974.41
2019-02-05T03:30:34.856Z,974.49
2019-02-05T03:31:34.832Z,974.45
2019-02-05T03:32:34.820Z,974.43
2019-02-05T03:33:35.796Z,974.48
2019-02-05T03:34:34.810Z,974.49
2019-02-05T03:35:34.869Z,974.50
2019-02-05T03:36:34.783Z,974.54
2019-02-05T03:37:34.795Z,974.48
2019-02-05T03:38:34.897Z,974.50
2019-02-05T03:39:34.756Z,974.47
2019-02-05T03:40:34.731Z,974.50
2019-02-05T03:41:34.827Z,974.43
2019-02-05T03:42:34.757Z,974.50
2019-02-05T03:43:34.762Z,974.43
2019-02-05T03:44:34.722Z,974.47
2019-02-05T03:45:34.750Z,974.45
2019-02-05T03:46:34.838Z,974.42
2019-02-05T03:47:34.768Z,974.39
2019-02-05T03:48:34.690Z,974.35
2019-02-05T03:49:34.635Z,974.41
2019-02-05T03:50:34.620Z,974.42
2019-02-05T03:51:34.635Z,974.45
2019-02-05T03:52:34.713Z,974.42
2019-02-05T03:53:34.581Z,974.50
2019-02-05T03:54:34.584Z,974.50
2019-02-05T03:55:34.567Z,974.46
2019-02-05T03:56:34.554Z,974.48
2019-02-05T03:57:34.577Z,974.48
2019-02-05T03:58:34.538Z,974.46
2019-02-05T03:59:34.524Z,974.46
2019-02-05T04:00:34.516Z,974.53
2019-02-05T04:01:34.537Z,974.46
2019-02-05T04:02:34.517Z,974.45
2019-02-05T04:03:34.477Z,974.47
2019-02-05T04:04:34.483Z,974.47
2019-02-05T04:05:34.454Z,974.48
2019-02-05T04:06:41.545Z,974.45
2019-02-05T04:07:41.873Z,974.44
2019-02-05T04:08:41.520Z,974.42
2019-02-05T04:09:34.407Z,974.43
2019-02-05T04:10:34.411Z,974.46
2019-02-05T04:11:34.385Z,974.45
2019-02-05T04:12:41.480Z,974.43
2019-02-05T04:13:41.920Z,974.45
2019-02-05T04:14:41.434Z,974.46
2019-02-05T04:15:41.405Z,974.41
2019-02-05T04:16:41.375Z,974.39
2019-02-05T04:17:41.381Z,974.41
2019-02-05T04:18:41.559Z,974.40
2019-02-05T04:19:41.362Z,974.37
2019-02-05T04:20:41.359Z,974.36
2019-02-05T04:21:41.423Z,974.40
2019-02-05T04:22:41.337Z,974.39
2019-02-05T04:23:41.666Z,974.33
2019-02-05T04:24:34.255Z,974.43
2019-02-05T04:25:34.240Z,974.48
2019-02-05T04:26:34.225Z,974.48
2019-02-05T04:27:43.837Z,974.43
2019-02-05T04:28:35.209Z,974.37
2019-02-05T04:29:41.713Z,974.37
2019-02-05T04:30:34.182Z,974.43
2019-02-05T04:31:34.176Z,974.38
2019-02-05T04:32:34.184Z,974.36
2019-02-05T04:33:34.174Z,974.31
2019-02-05T04:34:41.731Z,974.33
2019-02-05T04:35:34.140Z,974.32
2019-02-05T04:36:34.118Z,974.38
2019-02-05T04:37:34.194Z,974.26
2019-02-05T04:38:34.092Z,974.31
2019-02-05T04:39:34.116Z,974.32
2019-02-05T04:40:34.073Z,974.31
2019-02-05T04:41:34.072Z,974.33
2019-02-05T04:42:34.728Z,974.31
2019-02-05T04:43:34.059Z,974.28
2019-02-05T04:44:34.145Z,974.29
2019-02-05T04:45:34.550Z,974.21
2019-02-05T04:46:41.107Z,974.19
2019-02-05T04:47:34.004Z,974.15
2019-02-05T04:48:33.983Z,974.17
2019-02-05T04:49:34.005Z,974.14
2019-02-05T04:50:33.982Z,974.09
2019-02-05T04:51:33.971Z,974.11
2019-02-05T04:52:33.962Z,974.10
2019-02-05T04:53:33.954Z,974.11
2019-02-05T04:54:33.951Z,974.12
2019-02-05T04:55:33.925Z,974.10
2019-02-05T04:56:33.905Z,974.16
2019-02-05T04:57:33.893Z,974.27
2019-02-05T04:58:33.901Z,974.23
2019-02-05T04:59:33.875Z,974.31
2019-02-05T05:00:33.890Z,974.26
2019-02-05T05:01:33.870Z,974.25
2019-02-05T05:02:33.851Z,974.35
2019-02-05T05:03:33.947Z,974.31
2019-02-05T05:04:33.822Z,974.33
2019-02-05T05:05:33.835Z,974.36
2019-02-05T05:06:33.812Z,974.34
2019-02-05T05:07:40.835Z,974.38
2019-02-05T05:08:40.914Z,974.39
2019-02-05T05:09:40.834Z,974.36
2019-02-05T05:10:40.854Z,974.40
2019-02-05T05:11:41.268Z,974.38
2019-02-05T05:12:33.737Z,974.36
2019-02-05T05:13:33.724Z,974.39
2019-02-05T05:14:33.718Z,974.38
2019-02-05T05:15:33.702Z,974.42
2019-02-05T05:16:40.730Z,974.48
2019-02-05T05:17:41.014Z,974.48
2019-02-05T05:18:33.668Z,974.43
2019-02-05T05:19:33.659Z,974.47
2019-02-05T05:20:33.650Z,974.44
2019-02-05T05:21:33.646Z,974.41
2019-02-05T05:22:40.934Z,974.42
2019-02-05T05:23:40.711Z,974.40
2019-02-05T05:24:40.720Z,974.45
2019-02-05T05:25:40.725Z,974.42
2019-02-05T05:26:40.675Z,974.45
2019-02-05T05:27:33.633Z,974.50
2019-02-05T05:28:33.561Z,974.53
2019-02-05T05:29:33.542Z,974.55
2019-02-05T05:30:33.531Z,974.52
2019-02-05T05:31:33.521Z,974.52
2019-02-05T05:32:33.525Z,974.52
2019-02-05T05:33:33.503Z,974.48
2019-02-05T05:34:33.491Z,974.42
2019-02-05T05:35:41.837Z,974.38
2019-02-05T05:36:34.474Z,974.34
2019-02-05T05:37:41.058Z,974.38
2019-02-05T05:38:33.462Z,974.32
2019-02-05T05:39:33.434Z,974.34
2019-02-05T05:40:33.425Z,974.35
2019-02-05T05:41:33.417Z,974.35
2019-02-05T05:42:33.407Z,974.41
2019-02-05T05:43:33.410Z,974.46
2019-02-05T05:44:33.393Z,974.42
2019-02-05T05:45:33.386Z,974.51
2019-02-05T05:46:33.361Z,974.55
2019-02-05T05:47:33.371Z,974.57
2019-02-05T05:48:33.368Z,974.48
2019-02-05T05:49:33.324Z,974.48
2019-02-05T05:50:33.324Z,974.49
2019-02-05T05:51:33.306Z,974.50
2019-02-05T05:52:33.297Z,974.47
2019-02-05T05:53:40.562Z,974.51
2019-02-05T05:54:40.351Z,974.46
2019-02-05T05:55:40.347Z,974.54
2019-02-05T05:56:40.310Z,974.61
2019-02-05T05:57:33.248Z,974.71
2019-02-05T05:58:40.336Z,974.67
2019-02-05T05:59:40.741Z,974.67
2019-02-05T06:00:40.406Z,974.66
2019-02-05T06:01:40.243Z,974.65
2019-02-05T06:02:40.315Z,974.64
2019-02-05T06:03:40.270Z,974.66
2019-02-05T06:04:33.186Z,974.66
2019-02-05T06:05:33.158Z,974.64
2019-02-05T06:06:33.143Z,974.73
2019-02-05T06:07:33.128Z,974.66
2019-02-05T06:08:33.119Z,974.65
2019-02-05T06:09:40.486Z,974.63
2019-02-05T06:10:40.150Z,974.68
2019-02-05T06:11:40.187Z,974.69
2019-02-05T06:12:33.084Z,974.75
2019-02-05T06:13:33.066Z,974.78
2019-02-05T06:14:33.050Z,974.76
2019-02-05T06:15:40.433Z,974.75
2019-02-05T06:16:40.203Z,974.71
2019-02-05T06:17:40.118Z,974.70
2019-02-05T06:18:40.184Z,974.68
2019-02-05T06:19:40.135Z,974.71
2019-02-05T06:20:40.506Z,974.67
2019-02-05T06:21:40.071Z,974.63
2019-02-05T06:22:32.965Z,974.70
2019-02-05T06:23:32.965Z,974.63
2019-02-05T06:24:32.974Z,974.64
2019-02-05T06:25:32.963Z,974.72
2019-02-05T06:26:32.923Z,974.72
2019-02-05T06:27:32.928Z,974.81
2019-02-05T06:28:34.718Z,974.82
2019-02-05T06:29:32.906Z,974.84
2019-02-05T06:30:32.905Z,974.95
2019-02-05T06:31:32.884Z,974.95
2019-02-05T06:32:32.858Z,974.97
2019-02-05T06:33:32.855Z,975.00
2019-02-05T06:34:32.838Z,974.98
2019-02-05T06:35:32.859Z,974.95
2019-02-05T06:36:32.848Z,974.94
2019-02-05T06:37:32.843Z,974.91
2019-02-05T06:38:32.828Z,974.90
2019-02-05T06:39:32.794Z,974.86
2019-02-05T06:40:32.775Z,974.84
2019-02-05T06:41:32.857Z,974.84
2019-02-05T06:42:32.777Z,974.87
2019-02-05T06:43:32.753Z,974.90
2019-02-05T06:44:32.829Z,975.01
2019-02-05T06:45:32.725Z,975.06
2019-02-05T06:46:32.714Z,975.15
2019-02-05T06:47:32.745Z,975.14
2019-02-05T06:48:32.699Z,975.16
2019-02-05T06:49:32.701Z,975.15
2019-02-05T06:50:32.710Z,975.20
2019-02-05T06:51:32.773Z,975.24
2019-02-05T06:52:40.191Z,975.27
2019-02-05T06:53:39.743Z,975.32
2019-02-05T06:54:39.765Z,975.32
2019-02-05T06:55:40.102Z,975.25
2019-02-05T06:56:32.637Z,975.24
2019-02-05T06:57:32.593Z,975.26
2019-02-05T06:58:46.384Z,975.31
2019-02-05T06:59:33.569Z,975.30
2019-02-05T07:00:39.688Z,975.30
2019-02-05T07:01:32.558Z,975.36
2019-02-05T07:02:32.538Z,975.37
2019-02-05T07:03:32.561Z,975.34
2019-02-05T07:04:32.523Z,975.37
2019-02-05T07:05:32.557Z,975.37
2019-02-05T07:06:32.677Z,975.48
2019-02-05T07:07:32.491Z,975.44
2019-02-05T07:08:32.473Z,975.46
2019-02-05T07:09:32.492Z,975.41
2019-02-05T07:10:32.449Z,975.30
2019-02-05T07:11:32.469Z,975.34
2019-02-05T07:12:32.558Z,975.30
2019-02-05T07:13:32.434Z,975.38
2019-02-05T07:14:32.454Z,975.34
2019-02-05T07:15:32.425Z,975.36
2019-02-05T07:16:32.396Z,975.30
2019-02-05T07:17:33.154Z,975.36
2019-02-05T07:18:32.370Z,975.34
2019-02-05T07:19:32.410Z,975.38
2019-02-05T07:20:32.356Z,975.40
2019-02-05T07:21:32.334Z,975.41
2019-02-05T07:22:32.344Z,975.44
2019-02-05T07:23:32.325Z,975.41
2019-02-05T07:24:32.316Z,975.41
2019-02-05T07:25:32.346Z,975.43
2019-02-05T07:26:32.289Z,975.43
2019-02-05T07:27:32.264Z,975.44
2019-02-05T07:28:32.258Z,975.50
2019-02-05T07:29:32.257Z,975.45
2019-02-05T07:30:32.308Z,975.46
2019-02-05T07:31:32.225Z,975.47
2019-02-05T07:32:32.283Z,975.46
2019-02-05T07:33:32.205Z,975.42
2019-02-05T07:34:32.199Z,975.38
2019-02-05T07:35:32.214Z,975.37
2019-02-05T07:36:32.169Z,975.39
2019-02-05T07:37:32.156Z,975.36
2019-02-05T07:38:32.169Z,975.41
2019-02-05T07:39:39.274Z,975.42
2019-02-05T07:40:32.194Z,975.39
2019-02-05T07:41:32.183Z,975.44
2019-02-05T07:42:32.138Z,975.51
2019-02-05T07:43:32.097Z,975.54
2019-02-05T07:44:32.152Z,975.59
2019-02-05T07:45:32.080Z,975.62
2019-02-05T07:46:32.116Z,975.68
2019-02-05T07:47:32.047Z,975.71
2019-02-05T07:48:32.096Z,975.67
2019-02-05T07:49:32.059Z,975.65
2019-02-05T07:50:32.012Z,975.67
2019-02-05T07:51:32.172Z,975.75
2019-02-05T07:52:32.023Z,975.80
2019-02-05T07:53:33.296Z,975.83
2019-02-05T07:54:32.009Z,975.85
2019-02-05T07:55:31.966Z,975.88
2019-02-05T07:56:31.998Z,975.94
2019-02-05T07:57:31.952Z,975.92
2019-02-05T07:58:31.995Z,975.90
2019-02-05T07:59:31.937Z,975.95
2019-02-05T08:00:31.946Z,975.96
2019-02-05T08:01:31.921Z,975.96
2019-02-05T08:02:31.933Z,975.97
2019-02-05T08:05:03.871Z,975.98
2019-02-05T08:06:03.842Z,975.96
2019-02-05T08:07:11.186Z,975.95
2019-02-05T08:08:10.885Z,975.99
2019-02-05T08:09:11.067Z,975.92
2019-02-05T08:10:10.894Z,975.99
2019-02-05T08:11:10.989Z,975.99
2019-02-05T08:12:03.770Z,975.95
2019-02-05T08:13:11.199Z,975.93
2019-02-05T08:14:06.095Z,975.84
2019-02-05T08:15:03.755Z,975.89
2019-02-05T08:16:03.736Z,975.81
2019-02-05T08:17:10.758Z,975.78
2019-02-05T08:18:11.265Z,975.77
2019-02-05T08:19:10.861Z,975.74
2019-02-05T08:20:10.815Z,975.72
2019-02-05T08:21:10.830Z,975.74
2019-02-05T08:22:03.666Z,975.77
2019-02-05T08:23:03.707Z,975.80
2019-02-05T08:24:03.653Z,975.82
2019-02-05T08:25:03.638Z,975.74
2019-02-05T08:26:03.680Z,975.75
2019-02-05T08:27:03.636Z,975.85
2019-02-05T08:28:10.682Z,975.84
2019-02-05T08:29:03.582Z,975.84
2019-02-05T08:30:03.598Z,975.80
2019-02-05T08:31:03.577Z,975.78
2019-02-05T08:32:03.551Z,975.73
2019-02-05T08:33:03.560Z,975.79
2019-02-05T08:34:03.531Z,975.85
2019-02-05T08:35:03.516Z,975.83
2019-02-05T08:36:03.506Z,975.91
2019-02-05T08:37:03.492Z,975.87
2019-02-05T08:38:03.503Z,975.84
2019-02-05T08:39:03.478Z,975.83
2019-02-05T08:40:03.460Z,975.86
2019-02-05T08:41:03.450Z,975.84
2019-02-05T08:42:03.436Z,975.83
2019-02-05T08:43:03.434Z,975.87
2019-02-05T08:44:03.505Z,975.88
2019-02-05T08:45:03.404Z,975.87
2019-02-05T08:46:03.392Z,975.90
2019-02-05T08:47:03.398Z,975.91
2019-02-05T08:48:03.381Z,975.88
2019-02-05T08:49:03.362Z,975.92
2019-02-05T08:50:03.354Z,975.85
2019-02-05T08:51:03.340Z,975.90
2019-02-05T08:52:03.337Z,975.93
2019-02-05T08:53:03.315Z,975.96
2019-02-05T08:54:03.305Z,975.96
2019-02-05T08:55:03.302Z,976.04
2019-02-05T08:56:03.280Z,976.03
2019-02-05T08:57:03.272Z,976.05
2019-02-05T08:58:03.284Z,976.08
2019-02-05T08:59:03.248Z,976.07
2019-02-05T09:00:03.253Z,976.06
2019-02-05T09:01:03.229Z,976.13
2019-02-05T09:02:03.215Z,976.07
2019-02-05T09:03:03.212Z,976.06
2019-02-05T09:04:03.201Z,976.02
2019-02-05T09:05:03.221Z,976.08
2019-02-05T09:06:03.178Z,975.99
2019-02-05T09:07:03.166Z,975.93
2019-02-05T09:08:03.156Z,975.92
2019-02-05T09:09:03.143Z,975.94
2019-02-05T09:10:03.132Z,976.04
2019-02-05T09:11:03.127Z,976.02
2019-02-05T09:12:03.109Z,976.21
2019-02-05T09:13:03.101Z,976.20
2019-02-05T09:14:10.619Z,976.23
2019-02-05T09:15:04.070Z,976.18
2019-02-05T09:16:03.167Z,976.15
2019-02-05T09:17:03.053Z,976.26
2019-02-05T09:18:03.043Z,976.21
2019-02-05T09:19:03.032Z,976.21
2019-02-05T09:20:03.030Z,976.20
2019-02-05T09:21:03.009Z,976.26
2019-02-05T09:22:03.011Z,976.13
2019-02-05T09:23:03.097Z,976.17
2019-02-05T09:24:02.978Z,976.14
2019-02-05T09:25:02.966Z,976.21
2019-02-05T09:26:02.954Z,976.22
2019-02-05T09:27:02.959Z,976.27
2019-02-05T09:28:02.944Z,976.29
2019-02-05T09:29:02.920Z,976.22
2019-02-05T09:30:02.919Z,976.26
2019-02-05T09:31:02.898Z,976.31
2019-02-05T09:32:02.906Z,976.31
2019-02-05T09:33:02.885Z,976.27
2019-02-05T09:34:02.935Z,976.21
2019-02-05T09:35:02.859Z,976.25
2019-02-05T09:36:02.882Z,976.25
2019-02-05T09:37:02.830Z,976.25
2019-02-05T09:38:02.826Z,976.20
2019-02-05T09:39:02.815Z,976.29
2019-02-05T09:40:02.815Z,976.29
2019-02-05T09:41:02.786Z,976.28
2019-02-05T09:42:02.775Z,976.29
2019-02-05T09:43:02.762Z,976.22
2019-02-05T09:44:02.777Z,976.33
2019-02-05T09:45:02.748Z,976.29
2019-02-05T09:46:02.743Z,976.30
2019-02-05T09:47:02.725Z,976.30
2019-02-05T09:48:02.712Z,976.35
2019-02-05T09:49:02.699Z,976.32
2019-02-05T09:50:02.690Z,976.39
2019-02-05T09:51:02.675Z,976.41
2019-02-05T09:52:02.674Z,976.48
2019-02-05T09:53:02.653Z,976.52
2019-02-05T09:54:02.641Z,976.54
2019-02-05T09:55:02.655Z,976.51
2019-02-05T09:56:02.621Z,976.48
2019-02-05T09:57:02.620Z,976.53
2019-02-05T09:58:02.623Z,976.49
2019-02-05T09:59:02.600Z,976.48
2019-02-05T10:00:02.597Z,976.51
2019-02-05T10:01:02.565Z,976.52
2019-02-05T10:02:02.556Z,976.55
2019-02-05T10:03:02.552Z,976.58
2019-02-05T10:04:02.544Z,976.52
2019-02-05T10:05:02.524Z,976.55
2019-02-05T10:06:02.519Z,976.51
2019-02-05T10:07:02.499Z,976.56
2019-02-05T10:08:02.487Z,976.56
2019-02-05T10:09:02.478Z,976.61
2019-02-05T10:10:02.481Z,976.62
2019-02-05T10:11:02.462Z,976.62
2019-02-05T10:12:02.448Z,976.67
2019-02-05T10:13:02.433Z,976.66
2019-02-05T10:14:02.422Z,976.64
2019-02-05T10:15:02.414Z,976.60
2019-02-05T10:16:02.495Z,976.60
2019-02-05T10:17:02.388Z,976.70
2019-02-05T10:18:02.384Z,976.69
2019-02-05T10:19:02.371Z,976.63
2019-02-05T10:20:02.359Z,976.70
2019-02-05T10:21:02.346Z,976.61
2019-02-05T10:22:02.347Z,976.64
2019-02-05T10:23:02.357Z,976.62
2019-02-05T10:24:02.314Z,976.57
2019-02-05T10:25:02.302Z,976.51
2019-02-05T10:26:02.295Z,976.59
2019-02-05T10:27:02.301Z,976.51
2019-02-05T10:28:02.291Z,976.53
2019-02-05T10:29:02.262Z,976.44
2019-02-05T10:30:02.262Z,976.51
2019-02-05T10:31:02.238Z,976.54
2019-02-05T10:32:02.231Z,976.51
2019-02-05T10:33:02.215Z,976.52
2019-02-05T10:34:02.204Z,976.49
2019-02-05T10:35:02.206Z,976.50
2019-02-05T10:36:02.209Z,976.46
2019-02-05T10:37:02.182Z,976.54
2019-02-05T10:38:02.158Z,976.50
2019-02-05T10:39:02.147Z,976.46
2019-02-05T10:40:02.339Z,976.47
2019-02-05T10:41:02.139Z,976.45
2019-02-05T10:42:02.160Z,976.47
2019-02-05T10:43:02.121Z,976.40
2019-02-05T10:44:02.096Z,976.42
2019-02-05T10:45:02.087Z,976.44
2019-02-05T10:46:02.077Z,976.46
2019-02-05T10:47:02.072Z,976.51
2019-02-05T10:48:02.053Z,976.54
2019-02-05T10:49:03.339Z,976.57
2019-02-05T10:50:02.026Z,976.54
2019-02-05T10:51:02.033Z,976.57
2019-02-05T10:52:02.026Z,976.54
2019-02-05T10:53:02.002Z,976.48
2019-02-05T10:54:01.987Z,976.52
2019-02-05T10:55:01.986Z,976.53
2019-02-05T10:56:01.965Z,976.57
2019-02-05T10:57:01.958Z,976.54
2019-02-05T10:58:01.939Z,976.51
2019-02-05T10:59:01.929Z,976.52
2019-02-05T11:00:08.983Z,976.49
2019-02-05T11:01:02.921Z,976.44
2019-02-05T11:02:01.917Z,976.45
2019-02-05T11:03:01.890Z,976.49
2019-02-05T11:04:01.872Z,976.47
2019-02-05T11:05:01.862Z,976.50
2019-02-05T11:06:01.853Z,976.50
2019-02-05T11:07:01.862Z,976.53
2019-02-05T11:08:01.861Z,976.57
2019-02-05T11:09:01.819Z,976.51
2019-02-05T11:10:01.816Z,976.47
2019-02-05T11:11:01.798Z,976.42
2019-02-05T11:12:01.785Z,976.44
2019-02-05T11:13:01.786Z,976.41
2019-02-05T11:14:01.789Z,976.44
2019-02-05T11:15:01.775Z,976.43
2019-02-05T11:16:01.740Z,976.39
2019-02-05T11:17:01.735Z,976.33
2019-02-05T11:18:01.723Z,976.39
2019-02-05T11:19:01.720Z,976.35
2019-02-05T11:20:01.717Z,976.38
2019-02-05T11:21:04.298Z,976.43
2019-02-05T11:22:01.675Z,976.41
2019-02-05T11:23:01.668Z,976.34
2019-02-05T11:24:01.654Z,976.29
2019-02-05T11:25:01.641Z,976.28
2019-02-05T11:26:01.636Z,976.27
2019-02-05T11:27:01.639Z,976.26
2019-02-05T11:28:01.615Z,976.25
2019-02-05T11:29:01.601Z,976.23
2019-02-05T11:30:01.598Z,976.22
2019-02-05T11:31:01.581Z,976.19
2019-02-05T11:32:01.572Z,976.22
2019-02-05T11:33:01.554Z,976.25
2019-02-05T11:34:01.556Z,976.27
2019-02-05T11:35:01.540Z,976.27
2019-02-05T11:36:01.521Z,976.24
2019-02-05T11:37:01.527Z,976.25
2019-02-05T11:38:01.502Z,976.26
2019-02-05T11:39:01.506Z,976.27
2019-02-05T11:40:01.478Z,976.30
2019-02-05T11:41:01.480Z,976.25
2019-02-05T11:42:01.471Z,976.24
2019-02-05T11:43:01.451Z,976.32
2019-02-05T11:44:01.434Z,976.26
2019-02-05T11:45:01.421Z,976.31
2019-02-05T11:46:01.474Z,976.38
2019-02-05T11:47:03.797Z,976.34
2019-02-05T11:48:01.414Z,976.25
2019-02-05T11:49:01.379Z,976.21
2019-02-05T11:50:01.368Z,976.23
2019-02-05T11:51:01.364Z,976.23
2019-02-05T11:52:01.449Z,976.20
2019-02-05T11:53:01.356Z,976.23
2019-02-05T11:54:01.349Z,976.21
2019-02-05T11:55:01.311Z,976.22
2019-02-05T11:56:01.304Z,976.33
2019-02-05T11:57:01.292Z,976.33
2019-02-05T11:58:01.342Z,976.35
2019-02-05T11:59:01.285Z,976.33
2019-02-05T12:00:01.265Z,976.42
2019-02-05T12:01:01.254Z,976.41
2019-02-05T12:02:01.263Z,976.36
2019-02-05T12:03:01.233Z,976.42
2019-02-05T12:04:01.215Z,976.39
2019-02-05T12:05:01.203Z,976.39
2019-02-05T12:06:01.202Z,976.40
2019-02-05T12:07:01.206Z,976.34
2019-02-05T12:08:01.184Z,976.33
2019-02-05T12:09:01.172Z,976.28
2019-02-05T12:10:01.168Z,976.35
2019-02-05T12:11:01.153Z,976.29
2019-02-05T12:12:01.130Z,976.33
2019-02-05T12:13:01.129Z,976.32
2019-02-05T12:14:01.130Z,976.32
2019-02-05T12:15:01.101Z,976.29
2019-02-05T12:16:01.099Z,976.32
2019-02-05T12:17:01.083Z,976.33
2019-02-05T12:18:01.073Z,976.29
2019-02-05T12:19:01.064Z,976.32
2019-02-05T12:20:01.038Z,976.28
2019-02-05T12:21:01.043Z,976.28
2019-02-05T12:22:01.028Z,976.26
2019-02-05T12:23:01.052Z,976.23
2019-02-05T12:24:00.999Z,976.27
2019-02-05T12:25:01.010Z,976.25
2019-02-05T12:26:00.989Z,976.22
2019-02-05T12:27:00.984Z,976.27
2019-02-05T12:28:01.021Z,976.28
2019-02-05T12:29:00.950Z,976.24
2019-02-05T12:30:00.977Z,976.31